Time;durP1;ratioP1;P1;durP2;ratioP2;P2;SDS_P1;SDS_P2;PMS_P1;PMS_P2;Temp;Humidity;BMP_temperature;BMP_pressure;BME280_temperature;BME280_humidity;BME280_pressure;Samples;Min_cycle;Max_cycle;Signal;HPM_P1;HPM_P2
2022/10/10 00:00:46;;;;;;;2.15;1.23;;;;;;;10.46;71.69;101515.16;5015185;28;100998;-31
2022/10/10 00:03:12;;;;;;;3.00;1.40;;;;;;;10.43;71.67;101514.44;5016406;28;96500;-30
2022/10/10 00:05:38;;;;;;;3.70;1.45;;;;;;;10.43;71.84;101514.44;5015065;28;96882;-30
2022/10/10 00:08:05;;;;;;;3.50;1.80;;;;;;;10.43;71.14;101519.88;5014274;28;100825;-30
2022/10/10 00:10:31;;;;;;;3.42;1.50;;;;;;;10.39;71.24;101514.63;5014719;28;100829;-30
2022/10/10 00:12:56;;;;;;;1.70;1.38;;;;;;;10.38;71.54;101512.84;5016866;28;96650;-30
2022/10/10 00:15:21;;;;;;;2.60;1.35;;;;;;;10.36;71.50;101505.75;5016294;28;96831;-30
2022/10/10 00:17:47;;;;;;;2.05;1.42;;;;;;;10.36;71.48;101508.47;5016135;28;97971;-31
2022/10/10 00:20:15;;;;;;;1.42;1.10;;;;;;;10.37;72.00;101507.53;5015896;28;97854;-30
2022/10/10 00:22:41;;;;;;;3.25;1.38;;;;;;;10.35;71.71;101506.72;5014830;28;96601;-30
2022/10/10 00:25:07;;;;;;;1.83;1.30;;;;;;;10.37;71.76;101500.28;5015850;28;96719;-31
2022/10/10 00:27:33;;;;;;;2.88;1.90;;;;;;;10.36;71.56;101494.91;5014503;28;102406;-30
2022/10/10 00:29:59;;;;;;;2.72;1.23;;;;;;;10.35;71.44;101491.34;5015790;28;97323;-31
2022/10/10 00:32:24;;;;;;;1.70;1.27;;;;;;;10.35;71.33;101488.63;5015837;28;96511;-31
2022/10/10 00:34:49;;;;;;;2.20;1.30;;;;;;;10.35;72.33;101498.59;5016003;28;96858;-30
2022/10/10 00:37:15;;;;;;;3.63;1.50;;;;;;;10.34;71.75;101491.41;5015522;28;99300;-30
2022/10/10 00:39:40;;;;;;;2.47;1.63;;;;;;;10.33;71.91;101492.38;5015710;28;97773;-30
2022/10/10 00:42:05;;;;;;;4.25;1.65;;;;;;;10.32;71.75;101493.31;5015615;28;96494;-30
2022/10/10 00:44:31;;;;;;;2.83;1.42;;;;;;;10.34;71.61;101494.13;5016086;28;96805;-30
2022/10/10 00:46:57;;;;;;;2.95;1.67;;;;;;;10.32;71.90;101486.09;5013992;28;100048;-32
2022/10/10 00:49:26;;;;;;;3.08;1.30;;;;;;;10.33;71.99;101486.97;5015724;28;99193;-30
2022/10/10 00:51:55;;;;;;;3.67;1.80;;;;;;;10.34;71.65;101491.41;5014431;28;96614;-30
2022/10/10 00:54:23;;;;;;;2.42;1.27;;;;;;;10.31;72.01;101491.56;5014272;28;96803;-31
2022/10/10 00:56:54;;;;;;;2.33;1.48;;;;;;;10.26;71.46;101480.06;5013501;28;101209;-30
2022/10/10 00:59:20;;;;;;;3.05;1.63;;;;;;;10.30;71.85;101489.81;5014116;28;101434;-30
2022/10/10 01:01:46;;;;;;;2.35;1.65;;;;;;;10.28;71.58;101486.28;5014187;28;96531;-30
2022/10/10 01:04:43;;;;;;;6.03;1.88;;;;;;;10.27;71.81;101487.22;5014341;28;96838;-30
2022/10/10 01:07:18;;;;;;;3.53;1.30;;;;;;;10.24;72.48;101482.84;5015493;28;98543;-30
2022/10/10 01:09:46;;;;;;;2.28;1.38;;;;;;;10.22;72.21;101471.19;5014275;28;97384;-31
2022/10/10 01:12:26;;;;;;;2.58;1.67;;;;;;;10.25;72.31;101475.59;5014086;28;96463;-30
2022/10/10 01:15:15;;;;;;;1.92;1.23;;;;;;;10.24;72.47;101471.13;5016020;28;98956;-30
2022/10/10 01:17:46;;;;;;;1.88;1.30;;;;;;;10.20;72.40;101471.28;5013712;28;101107;-30
2022/10/10 01:20:22;;;;;;;8.02;2.20;;;;;;;10.21;72.39;101461.34;5013714;28;101138;-30
2022/10/10 01:23:09;;;;;;;4.47;1.60;;;;;;;10.23;72.66;101466.69;5013284;28;96721;-30
2022/10/10 01:25:41;;;;;;;4.88;1.20;;;;;;;10.20;72.88;101471.28;5015566;28;96569;-30
2022/10/10 01:28:18;;;;;;;5.50;1.80;;;;;;;10.21;72.69;101470.34;5013513;28;101309;-30
2022/10/10 01:30:47;;;;;;;3.00;1.73;;;;;;;10.19;73.20;101460.53;5015074;28;97829;-30
2022/10/10 01:33:16;;;;;;;2.33;1.65;;;;;;;10.19;72.54;101461.41;5013418;28;96696;-31
2022/10/10 01:35:54;;;;;;;2.20;1.50;;;;;;;10.22;72.59;101457.66;5013466;28;96818;-30
2022/10/10 01:38:25;;;;;;;2.00;1.40;;;;;;;10.20;73.01;101456.84;5013236;28;100929;-30
2022/10/10 01:40:54;;;;;;;3.85;1.83;;;;;;;10.19;72.88;101456.00;5015278;28;97604;-31
2022/10/10 01:43:19;;;;;;;2.72;1.55;;;;;;;10.16;73.06;101444.47;5014836;28;96592;-32
2022/10/10 01:45:50;;;;;;;2.92;1.73;;;;;;;10.13;73.08;101450.91;5014644;28;96824;-30
2022/10/10 01:48:24;;;;;;;2.15;1.65;;;;;;;10.12;72.68;101446.41;5014579;28;98001;-30
2022/10/10 01:51:08;;;;;;;1.98;1.33;;;;;;;10.13;73.63;101441.88;5013215;28;100782;-30
2022/10/10 01:54:12;;;;;;;3.85;2.00;;;;;;;10.08;73.57;101439.44;5015111;28;96538;-30
2022/10/10 01:57:00;;;;;;;2.35;1.60;;;;;;;10.07;73.70;101437.66;4963786;28;98684;-30
2022/10/10 01:59:41;;;;;;;2.30;1.65;;;;;;;9.99;73.60;101423.66;5013199;28;101321;-30
2022/10/10 02:02:18;;;;;;;2.55;1.63;;;;;;;10.03;73.51;101424.34;5013257;28;101543;-31
2022/10/10 02:04:50;;;;;;;2.03;1.40;;;;;;;10.03;73.39;101425.22;5014873;28;96595;-30
2022/10/10 02:07:26;;;;;;;3.70;1.60;;;;;;;10.04;73.59;101426.13;5013741;28;96709;-29
2022/10/10 02:09:53;;;;;;;2.70;1.67;;;;;;;10.04;73.58;101424.28;5014465;28;98075;-31
2022/10/10 02:12:21;;;;;;;2.17;1.60;;;;;;;10.03;73.31;101419.81;5013018;28;101305;-30
2022/10/10 02:14:51;;;;;;;7.43;1.83;;;;;;;10.03;73.52;101419.81;5012276;28;96877;-30
2022/10/10 02:17:18;;;;;;;4.05;1.90;;;;;;;10.02;73.44;101426.19;5013125;28;96713;-30
2022/10/10 02:19:48;;;;;;;2.05;1.50;;;;;;;10.01;73.95;101421.75;5012796;28;98884;-30
2022/10/10 02:22:15;;;;;;;2.47;1.60;;;;;;;9.98;73.94;101417.34;5014643;28;97333;-30
2022/10/10 02:24:41;;;;;;;2.75;1.75;;;;;;;9.99;73.84;101418.22;5013252;28;96479;-30
2022/10/10 02:27:18;;;;;;;2.80;1.55;;;;;;;9.96;73.47;101415.66;5013206;28;96819;-29
2022/10/10 02:29:46;;;;;;;3.15;1.40;;;;;;;9.95;74.13;101408.50;5012815;28;100858;-30
2022/10/10 02:32:23;;;;;;;1.63;1.30;;;;;;;9.95;74.49;101406.66;5012959;28;100999;-30
2022/10/10 02:34:52;;;;;;;3.72;1.70;;;;;;;9.94;74.04;101404.06;5012966;28;96581;-30
2022/10/10 02:37:19;;;;;;;3.28;1.50;;;;;;;9.94;73.92;101404.94;5012979;28;96847;-31
2022/10/10 02:39:49;;;;;;;5.78;1.58;;;;;;;9.97;74.12;101402.06;5013397;28;98993;-30
2022/10/10 02:42:16;;;;;;;3.78;1.67;;;;;;;9.91;73.91;101394.25;5012693;28;100470;-30
2022/10/10 02:44:43;;;;;;;3.50;1.92;;;;;;;9.91;73.69;101398.78;5012571;28;96509;-30
2022/10/10 02:47:08;;;;;;;4.22;1.90;;;;;;;9.86;74.47;101395.44;5013828;28;96684;-30
2022/10/10 02:49:34;;;;;;;2.10;1.48;;;;;;;9.88;74.29;101393.53;5017494;28;97566;-31
2022/10/10 02:52:00;;;;;;;4.85;1.70;;;;;;;9.87;74.41;101395.38;5017290;28;97312;-31
2022/10/10 02:54:26;;;;;;;5.60;2.03;;;;;;;9.88;74.06;101397.09;5016092;28;96598;-30
2022/10/10 02:56:51;;;;;;;3.47;2.17;;;;;;;9.85;74.64;101401.81;5017782;28;96801;-30
2022/10/10 02:59:17;;;;;;;2.58;1.63;;;;;;;9.85;74.85;101386.44;5017114;28;99768;-30
2022/10/10 03:01:43;;;;;;;3.00;1.40;;;;;;;9.85;74.56;101393.69;5017706;28;96734;-30
2022/10/10 03:04:09;;;;;;;2.45;1.83;;;;;;;9.84;74.34;101387.38;5015679;28;96911;-30
2022/10/10 03:06:35;;;;;;;2.80;1.80;;;;;;;9.77;74.71;101383.22;5017721;28;96810;-30
2022/10/10 03:09:00;;;;;;;2.00;1.25;;;;;;;9.78;74.96;101393.13;5015591;28;101201;-30
2022/10/10 03:11:26;;;;;;;2.78;1.60;;;;;;;9.69;75.89;101372.78;5015619;28;99392;-31
2022/10/10 03:13:51;;;;;;;2.92;1.80;;;;;;;9.66;74.83;101383.78;5017000;28;96779;-29
2022/10/10 03:16:16;;;;;;;3.05;1.85;;;;;;;9.68;75.56;101378.31;5017076;28;101079;-30
2022/10/10 03:18:41;;;;;;;4.50;1.83;;;;;;;9.67;74.83;101385.50;5017026;28;97445;-30
2022/10/10 03:21:07;;;;;;;3.30;1.90;;;;;;;9.60;75.86;101388.59;5017316;28;97569;-30
2022/10/10 03:23:34;;;;;;;3.63;2.00;;;;;;;9.59;75.35;101381.44;5016952;28;96786;-30
2022/10/10 03:26:00;;;;;;;3.17;1.88;;;;;;;9.54;75.68;101385.25;5015950;28;96657;-31
2022/10/10 03:28:25;;;;;;;2.00;1.52;;;;;;;9.56;76.02;101375.25;5014883;28;100870;-30
2022/10/10 03:30:51;;;;;;;4.65;2.00;;;;;;;9.56;75.29;101380.66;5016207;28;113781;-30
2022/10/10 03:33:16;;;;;;;3.78;1.67;;;;;;;9.55;75.81;101378.00;5016577;28;102893;-31
2022/10/10 03:35:41;;;;;;;2.88;1.63;;;;;;;9.55;76.25;101378.00;5017130;28;96721;-30
2022/10/10 03:38:07;;;;;;;3.33;1.88;;;;;;;9.55;75.97;101387.00;5016493;28;99244;-30
2022/10/10 03:40:33;;;;;;;3.08;1.67;;;;;;;9.55;76.13;101378.00;5016671;28;97324;-30
2022/10/10 03:42:58;;;;;;;3.42;1.58;;;;;;;9.58;75.91;101375.16;5017350;28;96927;-32
2022/10/10 03:45:24;;;;;;;1.90;1.50;;;;;;;9.57;76.25;101379.69;5017026;28;96761;-30
2022/10/10 03:47:49;;;;;;;3.47;1.30;;;;;;;9.56;76.50;101377.06;5016402;28;99323;-30
2022/10/10 03:50:15;;;;;;;2.65;1.52;;;;;;;9.55;76.00;101388.81;5016511;28;97730;-30
2022/10/10 03:52:40;;;;;;;1.85;1.27;;;;;;;9.59;76.40;101386.88;5015932;28;96604;-29
2022/10/10 03:55:06;;;;;;;2.47;1.52;;;;;;;9.55;76.22;101375.31;5016542;28;96601;-30
2022/10/10 03:57:33;;;;;;;3.83;1.73;;;;;;;9.56;76.63;101377.06;5016199;28;100165;-30
2022/10/10 03:59:59;;;;;;;3.47;1.80;;;;;;;9.58;76.72;101383.25;5014852;28;100805;-30
2022/10/10 04:02:24;;;;;;;2.50;1.35;;;;;;;9.53;76.32;101374.50;5016935;28;97107;-30
2022/10/10 04:04:49;;;;;;;2.03;1.30;;;;;;;9.53;76.34;101374.50;5016343;28;98330;-30
2022/10/10 04:07:15;;;;;;;3.65;1.60;;;;;;;9.58;76.52;101377.84;5016421;28;97892;-30
2022/10/10 04:09:40;;;;;;;2.40;1.40;;;;;;;9.62;76.31;101386.69;5032248;28;97754;-30
2022/10/10 04:12:06;;;;;;;3.35;1.38;;;;;;;9.56;76.46;101372.53;5016486;28;96545;-31
2022/10/10 04:14:31;;;;;;;5.30;2.20;;;;;;;9.53;76.72;101374.50;5016116;28;96818;-30
2022/10/10 04:16:56;;;;;;;2.55;1.38;;;;;;;9.56;76.53;101377.06;5015440;28;99278;-30
2022/10/10 04:19:22;;;;;;;2.53;1.55;;;;;;;9.54;76.44;101371.72;5016290;28;97900;-30
2022/10/10 04:21:47;;;;;;;3.00;1.67;;;;;;;9.55;76.39;101369.91;5016447;28;96493;-30
2022/10/10 04:24:12;;;;;;;2.92;1.50;;;;;;;9.57;76.27;101370.69;5016354;28;96728;-30
2022/10/10 04:26:37;;;;;;;4.90;1.75;;;;;;;9.55;76.54;101372.59;5015738;28;105723;-31
2022/10/10 04:29:03;;;;;;;3.75;1.73;;;;;;;9.56;76.74;101371.66;5015363;28;115431;-30
2022/10/10 04:31:28;;;;;;;3.28;1.92;;;;;;;9.51;76.49;101368.28;5016054;28;99784;-30
2022/10/10 04:33:54;;;;;;;3.15;1.70;;;;;;;9.48;76.97;101373.84;5016292;28;96845;-29
2022/10/10 04:36:19;;;;;;;2.10;1.20;;;;;;;9.46;77.73;101371.25;5015602;28;102164;-30
2022/10/10 04:38:45;;;;;;;3.05;2.10;;;;;;;9.43;76.96;101371.38;5015696;28;97852;-30
2022/10/10 04:41:10;;;;;;;3.53;1.77;;;;;;;9.42;78.08;101371.47;5015544;28;96679;-32
2022/10/10 04:43:35;;;;;;;4.60;1.98;;;;;;;9.44;77.57;101373.13;5015739;28;96542;-30
2022/10/10 04:46:01;;;;;;;3.22;1.60;;;;;;;9.43;77.67;101378.59;5015059;28;107905;-31
2022/10/10 04:48:26;;;;;;;3.00;1.80;;;;;;;9.45;77.55;101379.41;5015989;28;97333;-31
2022/10/10 04:50:53;;;;;;;3.58;1.73;;;;;;;9.45;78.04;101380.28;5015818;28;96450;-30
2022/10/10 04:53:19;;;;;;;8.68;1.63;;;;;;;9.41;78.11;101369.69;5015819;28;97118;-30
2022/10/10 04:55:44;;;;;;;2.22;1.52;;;;;;;9.43;77.91;101386.72;5015613;28;97906;-30
2022/10/10 04:58:10;;;;;;;4.50;1.67;;;;;;;9.38;78.03;101377.97;5015769;28;97788;-30
2022/10/10 05:00:37;;;;;;;4.57;2.45;;;;;;;9.37;77.90;101382.50;5014270;28;96561;-29
2022/10/10 05:03:03;;;;;;;2.45;1.55;;;;;;;9.39;78.74;101387.81;5014320;28;96937;-29
2022/10/10 05:05:29;;;;;;;3.08;1.70;;;;;;;9.39;78.24;101387.81;5013411;28;100989;-32
2022/10/10 05:07:55;;;;;;;2.58;1.25;;;;;;;9.38;78.22;101378.81;5013839;28;100658;-30
2022/10/10 05:10:20;;;;;;;2.53;1.65;;;;;;;9.34;78.58;101391.63;5015230;28;96422;-31
2022/10/10 05:12:46;;;;;;;2.58;1.50;;;;;;;9.36;78.81;101386.13;5015611;28;96791;-29
2022/10/10 05:15:11;;;;;;;3.17;1.85;;;;;;;9.35;78.92;101387.09;5014964;28;97305;-30
2022/10/10 05:17:36;;;;;;;1.85;1.38;;;;;;;9.36;78.64;101392.41;5015326;28;97227;-31
2022/10/10 05:20:02;;;;;;;2.75;1.73;;;;;;;9.32;78.59;101381.84;5015260;28;96691;-30
2022/10/10 05:22:28;;;;;;;5.63;1.90;;;;;;;9.38;78.33;101394.19;5015630;28;96851;-29
2022/10/10 05:24:53;;;;;;;3.42;2.13;;;;;;;9.36;79.02;101389.69;5014900;28;99099;-30
2022/10/10 05:27:18;;;;;;;10.65;1.88;;;;;;;9.40;78.43;101392.28;5014427;28;120579;-29
2022/10/10 05:29:44;;;;;;;3.83;1.45;;;;;;;9.38;78.75;101388.78;5014499;28;96533;-30
2022/10/10 05:32:09;;;;;;;3.03;1.63;;;;;;;9.39;78.59;101395.91;5014947;28;100113;-30
2022/10/10 05:34:34;;;;;;;3.53;1.77;;;;;;;9.40;79.05;101390.44;5014563;28;104940;-30
2022/10/10 05:37:00;;;;;;;2.38;1.50;;;;;;;9.38;78.40;101384.22;5014544;28;98057;-30
2022/10/10 05:39:25;;;;;;;5.32;1.90;;;;;;;9.36;78.54;101389.69;5015104;28;96647;-30
2022/10/10 05:41:50;;;;;;;4.10;1.90;;;;;;;9.36;79.04;101384.28;5013567;28;98866;-30
2022/10/10 05:44:16;;;;;;;5.03;2.05;;;;;;;9.38;78.81;101394.19;5014896;28;97931;-31
2022/10/10 05:46:41;;;;;;;3.47;1.90;;;;;;;9.36;78.61;101392.41;5014837;28;97865;-31
2022/10/10 05:49:06;;;;;;;4.03;2.15;;;;;;;9.36;79.05;101392.41;5015443;28;96644;-31
2022/10/10 05:51:32;;;;;;;3.83;1.85;;;;;;;9.35;79.05;101395.19;5014835;28;96719;-30
2022/10/10 05:53:57;;;;;;;4.72;1.85;;;;;;;9.32;79.29;101393.53;5014116;28;99214;-30
2022/10/10 05:56:22;;;;;;;3.67;1.75;;;;;;;9.34;79.61;101401.53;5014667;28;98014;-30
2022/10/10 05:58:50;;;;;;;3.22;1.48;;;;;;;9.38;79.01;101402.28;5014679;28;96622;-30
2022/10/10 06:01:15;;;;;;;2.38;1.65;;;;;;;9.39;79.83;101401.31;5014881;28;96705;-30
2022/10/10 06:03:41;;;;;;;2.75;1.40;;;;;;;9.38;79.01;101399.59;5014547;28;97916;-30
2022/10/10 06:06:06;;;;;;;3.22;1.60;;;;;;;9.39;78.68;101406.72;5013741;28;111256;-30
2022/10/10 06:08:31;;;;;;;3.80;2.17;;;;;;;9.39;79.08;101409.44;5015166;28;96477;-30
2022/10/10 06:11:07;;;;;;;5.00;2.42;;;;;;;9.40;78.80;101398.56;5015043;28;96788;-30
2022/10/10 06:13:32;;;;;;;4.28;1.90;;;;;;;9.42;79.34;101401.19;5012912;28;100952;-31
2022/10/10 06:15:58;;;;;;;3.42;1.92;;;;;;;9.41;79.13;101397.59;5014363;28;97408;-31
2022/10/10 06:18:23;;;;;;;2.83;1.58;;;;;;;9.45;79.27;101407.31;5014242;28;96472;-30
2022/10/10 06:20:49;;;;;;;3.22;1.73;;;;;;;9.45;79.18;101393.81;5014384;28;96798;-30
2022/10/10 06:23:15;;;;;;;3.10;1.77;;;;;;;9.43;79.47;101400.25;5016638;28;98838;-30
2022/10/10 06:25:40;;;;;;;4.38;1.42;;;;;;;9.43;79.55;101395.69;5016414;28;100938;-30
2022/10/10 06:28:06;;;;;;;3.92;1.95;;;;;;;9.44;79.44;101393.88;5018196;28;96554;-30
2022/10/10 06:30:33;;;;;;;4.53;2.10;;;;;;;9.44;78.95;101402.88;5018248;28;96825;-30
2022/10/10 06:32:59;;;;;;;3.00;1.65;;;;;;;9.46;79.78;101403.69;5016375;28;101530;-32
2022/10/10 06:35:24;;;;;;;2.75;1.13;;;;;;;9.46;79.71;101405.50;5017541;28;112504;-30
2022/10/10 06:37:50;;;;;;;2.85;1.67;;;;;;;9.48;79.52;101404.47;5017879;28;96518;-29
2022/10/10 06:40:15;;;;;;;5.82;1.70;;;;;;;9.52;79.75;101413.31;5017784;28;96793;-30
2022/10/10 06:42:40;;;;;;;5.20;2.30;;;;;;;9.51;79.59;101411.53;5016613;28;117376;-30
2022/10/10 06:45:07;;;;;;;3.90;2.08;;;;;;;9.53;79.72;101424.06;5016793;28;110440;-30
2022/10/10 06:47:32;;;;;;;3.90;1.77;;;;;;;9.53;79.76;101417.75;5016409;28;96618;-30
2022/10/10 06:49:58;;;;;;;2.05;1.27;;;;;;;9.59;79.62;101424.72;5017628;28;96850;-31
2022/10/10 06:52:23;;;;;;;4.97;2.25;;;;;;;9.60;79.62;101410.25;5016834;28;116467;-31
2022/10/10 06:54:48;;;;;;;5.82;1.48;;;;;;;9.63;80.15;101423.59;5017615;28;97866;-29
2022/10/10 06:57:14;;;;;;;4.70;1.80;;;;;;;9.66;79.63;101416.22;5017554;28;96457;-30
2022/10/10 06:59:39;;;;;;;3.45;2.00;;;;;;;9.67;79.97;101423.38;5018273;28;96792;-29
2022/10/10 07:02:04;;;;;;;1.67;1.30;;;;;;;9.70;80.20;101425.97;5017425;28;99191;-31
2022/10/10 07:04:30;;;;;;;2.53;1.65;;;;;;;9.74;80.10;101429.38;5016933;28;99374;-30
2022/10/10 07:06:55;;;;;;;3.20;2.10;;;;;;;9.77;80.31;101430.13;5017177;28;96778;-30
2022/10/10 07:09:20;;;;;;;6.18;1.95;;;;;;;9.78;80.51;101437.28;5017438;28;96797;-30
2022/10/10 07:11:46;;;;;;;3.08;1.70;;;;;;;9.79;80.49;101435.44;5016604;28;105633;-30
2022/10/10 07:14:12;;;;;;;3.55;2.10;;;;;;;9.84;79.77;101449.63;5015231;28;99548;-30
2022/10/10 07:16:37;;;;;;;3.13;2.08;;;;;;;9.85;80.34;101450.50;5017240;28;102793;-30
2022/10/10 07:19:03;;;;;;;3.00;1.65;;;;;;;9.86;79.99;101441.44;5017204;28;96745;-30
2022/10/10 07:21:29;;;;;;;5.82;2.08;;;;;;;9.89;79.63;101441.28;5015495;28;101024;-30
2022/10/10 07:23:54;;;;;;;4.13;2.13;;;;;;;9.92;80.44;101449.25;5017264;28;97307;-30
2022/10/10 07:26:21;;;;;;;2.80;1.30;;;;;;;9.93;81.00;101448.28;5017307;28;96624;-31
2022/10/10 07:28:47;;;;;;;3.90;1.90;;;;;;;9.96;80.66;101443.63;5015791;28;96837;-31
2022/10/10 07:31:14;;;;;;;3.47;2.00;;;;;;;9.99;81.23;101437.19;5014932;28;100847;-29
2022/10/10 07:33:43;;;;;;;3.40;2.08;;;;;;;10.05;80.80;101436.84;5016078;28;98836;-30
2022/10/10 07:36:09;;;;;;;3.97;2.03;;;;;;;10.10;80.88;101442.03;5033827;28;96903;-30
2022/10/10 07:38:36;;;;;;;2.63;1.42;;;;;;;10.20;80.42;101444.22;5035732;28;96811;-31
2022/10/10 07:41:10;;;;;;;5.50;2.13;;;;;;;10.25;80.49;101430.47;5035345;28;100812;-30
2022/10/10 07:43:36;;;;;;;5.72;2.25;;;;;;;10.34;80.34;101438.13;5035284;28;100939;-30
2022/10/10 07:46:02;;;;;;;2.45;1.73;;;;;;;10.46;80.24;101443.88;5036627;28;96755;-30
2022/10/10 07:48:29;;;;;;;3.08;2.10;;;;;;;10.54;79.25;101439.81;5035930;28;96570;-30
2022/10/10 07:50:54;;;;;;;2.22;1.50;;;;;;;10.64;79.17;101448.34;5035249;28;101294;-30
2022/10/10 07:53:19;;;;;;;3.70;2.00;;;;;;;10.71;79.54;101447.06;5036087;28;123586;-30
2022/10/10 07:55:45;;;;;;;2.70;1.90;;;;;;;10.85;78.81;101459.88;5036318;27;96950;-29
2022/10/10 07:58:10;;;;;;;4.13;2.03;;;;;;;10.94;78.80;101453.97;5036212;28;105076;-30
2022/10/10 08:00:39;;;;;;;3.40;1.83;;;;;;;10.97;79.00;101452.94;5034831;28;101091;-30
2022/10/10 08:03:05;;;;;;;3.90;2.20;;;;;;;11.04;79.37;101459.78;5034965;28;98857;-30
2022/10/10 08:05:30;;;;;;;2.15;1.60;;;;;;;11.08;78.56;101457.78;5035258;28;96694;-30
2022/10/10 08:07:56;;;;;;;2.40;1.63;;;;;;;11.14;78.78;101466.47;5036915;27;96769;-31
2022/10/10 08:10:21;;;;;;;7.93;2.78;;;;;;;11.17;78.49;101473.53;5036581;27;97945;-30
2022/10/10 08:12:47;;;;;;;4.57;1.88;;;;;;;11.20;78.12;101476.06;5036665;27;99692;-30
2022/10/10 08:15:12;;;;;;;3.83;2.25;;;;;;;11.20;79.10;101478.78;5036336;27;96896;-32
2022/10/10 08:17:37;;;;;;;3.95;2.22;;;;;;;11.27;78.92;101485.63;5036699;27;96782;-29
2022/10/10 08:20:03;;;;;;;4.72;2.72;;;;;;;11.30;78.66;101484.59;5035051;28;119506;-30
2022/10/10 08:22:28;;;;;;;5.90;1.85;;;;;;;11.34;79.69;101494.31;5036229;28;97854;-32
2022/10/10 08:24:54;;;;;;;3.25;1.45;;;;;;;11.36;79.55;101492.41;5036529;27;96577;-29
2022/10/10 08:27:19;;;;;;;4.25;2.22;;;;;;;11.38;78.67;101488.66;5036414;27;96757;-31
2022/10/10 08:29:45;;;;;;;4.78;2.15;;;;;;;11.40;79.39;101489.44;5036073;28;97933;-30
2022/10/10 08:32:11;;;;;;;2.78;1.80;;;;;;;11.45;79.23;101492.78;5035807;27;98733;-31
2022/10/10 08:34:36;;;;;;;4.00;1.77;;;;;;;11.47;78.85;101492.72;5036600;28;96564;-30
2022/10/10 08:37:02;;;;;;;5.13;2.10;;;;;;;11.51;79.09;101490.69;5036600;27;96831;-30
2022/10/10 08:39:27;;;;;;;3.45;1.83;;;;;;;11.58;78.63;101495.69;5034452;28;100704;-30
2022/10/10 08:41:59;;;;;;;4.70;2.08;;;;;;;11.60;79.57;101493.75;5035483;27;98722;-30
2022/10/10 08:44:27;;;;;;;4.95;1.88;;;;;;;11.61;79.65;101492.81;5033177;28;96764;-29
2022/10/10 08:46:57;;;;;;;3.45;1.60;;;;;;;11.64;80.11;101489.91;5035883;28;96869;-30
2022/10/10 08:49:35;;;;;;;3.63;1.80;;;;;;;11.68;79.63;101496.06;5034243;28;99890;-30
2022/10/10 08:52:06;;;;;;;3.65;2.10;;;;;;;11.72;79.54;101491.34;5034368;28;100929;-30
2022/10/10 08:54:35;;;;;;;7.07;2.38;;;;;;;11.74;79.43;101487.56;5036023;28;96737;-30
2022/10/10 08:57:04;;;;;;;4.22;2.00;;;;;;;11.79;80.17;101493.59;5034178;28;96905;-30
2022/10/10 08:59:34;;;;;;;3.78;2.10;;;;;;;11.81;79.90;101499.84;5034292;28;101203;-30
2022/10/10 09:02:37;;;;;;;5.03;2.05;;;;;;;11.91;79.43;101502.94;5034642;28;99316;-30
2022/10/10 09:05:03;;;;;;;3.58;2.13;;;;;;;11.98;79.24;101501.63;5036061;28;96686;-30
2022/10/10 09:07:43;;;;;;;2.30;1.50;;;;;;;12.07;80.31;101513.81;5034142;28;96885;-30
2022/10/10 09:10:28;;;;;;;7.97;1.73;;;;;;;12.14;80.08;101504.34;5033672;28;101393;-30
2022/10/10 09:13:03;;;;;;;3.88;1.80;;;;;;;12.27;79.40;101516.22;5034121;28;101325;-30
2022/10/10 09:15:34;;;;;;;2.70;1.77;;;;;;;12.42;79.34;101511.78;5035889;27;96966;-30
2022/10/10 09:18:17;;;;;;;4.40;1.92;;;;;;;12.58;78.55;101508.13;5033987;28;96779;-29
2022/10/10 09:21:11;;;;;;;6.72;1.83;;;;;;;12.71;78.62;101504.59;5035205;27;99349;-29
2022/10/10 09:23:52;;;;;;;2.72;1.77;;;;;;;12.77;77.67;101492.47;5033951;28;100849;-30
2022/10/10 09:26:24;;;;;;;4.03;1.67;;;;;;;12.84;78.35;101498.41;5034269;28;96622;-30
2022/10/10 09:28:59;;;;;;;3.60;2.08;;;;;;;12.93;77.58;101503.28;5034579;28;96733;-29
2022/10/10 09:31:51;;;;;;;5.10;2.03;;;;;;;13.02;77.47;101516.34;5035168;27;99223;-29
2022/10/10 09:34:26;;;;;;;3.50;1.48;;;;;;;13.11;77.50;101513.06;5034535;28;99367;-29
2022/10/10 09:36:51;;;;;;;3.80;1.85;;;;;;;13.16;77.78;101524.53;5033460;28;96618;-30
2022/10/10 09:39:31;;;;;;;4.65;2.13;;;;;;;13.21;77.96;101532.41;5033860;28;96972;-29
2022/10/10 09:41:59;;;;;;;3.53;2.08;;;;;;;13.26;77.04;101543.00;5017652;28;101129;-30
2022/10/10 09:44:26;;;;;;;5.72;2.10;;;;;;;13.37;77.24;101544.13;5033521;27;101390;-30
2022/10/10 09:46:52;;;;;;;3.53;1.90;;;;;;;13.50;77.12;101552.38;5033586;28;96915;-30
2022/10/10 09:49:19;;;;;;;5.43;2.30;;;;;;;13.54;76.93;101556.69;5033708;28;96944;-30
2022/10/10 09:51:47;;;;;;;3.78;1.98;;;;;;;13.56;76.84;101545.66;5033350;28;99013;-29
2022/10/10 09:54:15;;;;;;;2.63;1.83;;;;;;;13.59;77.22;101550.94;5033774;28;100800;-29
2022/10/10 09:56:52;;;;;;;3.60;2.00;;;;;;;13.59;77.75;101551.81;5033497;28;96676;-30
2022/10/10 09:59:38;;;;;;;3.80;2.00;;;;;;;13.70;77.43;101558.41;5033458;28;98425;-30
2022/10/10 10:02:25;;;;;;;6.10;2.30;;;;;;;13.67;77.62;101555.91;5034188;28;98020;-31
2022/10/10 10:04:54;;;;;;;5.97;1.73;;;;;;;13.67;78.06;101558.63;5033280;28;101150;-30
2022/10/10 10:07:27;;;;;;;3.97;2.13;;;;;;;13.70;77.77;101564.72;5033621;28;96566;-30
2022/10/10 10:10:16;;;;;;;4.00;2.20;;;;;;;13.72;78.33;101561.91;5033376;28;96786;-31
2022/10/10 10:12:43;;;;;;;5.68;1.65;;;;;;;13.79;77.89;101571.44;5033204;28;101007;-30
2022/10/10 10:15:23;;;;;;;3.28;1.88;;;;;;;13.89;77.97;101560.84;5032901;28;101037;-30
2022/10/10 10:18:15;;;;;;;4.03;1.60;;;;;;;14.00;77.87;101572.81;5033139;27;96770;-30
2022/10/10 10:20:44;;;;;;;3.63;1.80;;;;;;;14.13;77.68;101572.00;5031909;28;96887;-30
2022/10/10 10:23:24;;;;;;;3.20;2.13;;;;;;;14.33;77.32;101578.91;5032997;28;101261;-31
2022/10/10 10:26:02;;;;;;;4.15;1.83;;;;;;;14.43;76.92;101580.91;5032959;28;100873;-30
2022/10/10 10:28:27;;;;;;;4.07;1.88;;;;;;;14.44;77.00;101587.22;5034087;27;96527;-30
2022/10/10 10:30:55;;;;;;;3.75;1.75;;;;;;;14.49;77.07;101590.53;5034301;27;96852;-31
2022/10/10 10:33:35;;;;;;;2.88;1.67;;;;;;;14.56;77.22;101604.66;5032870;28;100992;-30
2022/10/10 10:36:22;;;;;;;3.28;1.70;;;;;;;14.63;77.01;101598.72;5032909;28;100688;-31
2022/10/10 10:39:20;;;;;;;3.35;1.63;;;;;;;14.80;76.31;101604.88;5032885;28;96664;-31
2022/10/10 10:42:13;;;;;;;3.22;1.88;;;;;;;14.86;76.31;101599.00;5034474;28;96536;-30
2022/10/10 10:44:48;;;;;;;5.40;1.50;;;;;;;14.82;76.53;101603.78;5034015;28;99416;-29
2022/10/10 10:47:34;;;;;;;6.88;1.70;;;;;;;14.81;76.89;101601.19;5032693;28;100923;-31
2022/10/10 10:50:17;;;;;;;3.03;1.75;;;;;;;14.79;77.31;101603.13;5032920;28;96572;-30
2022/10/10 10:52:56;;;;;;;3.20;1.80;;;;;;;14.83;77.08;101605.53;5034593;27;96767;-30
2022/10/10 10:55:41;;;;;;;9.40;2.53;;;;;;;14.83;77.45;101608.28;5032280;28;101253;-29
2022/10/10 10:58:36;;;;;;;3.42;1.90;;;;;;;14.88;77.19;101604.38;5034246;27;97175;-30
2022/10/10 11:01:15;;;;;;;4.15;2.17;;;;;;;14.92;77.27;101614.06;5034538;27;96594;-30
2022/10/10 11:04:00;;;;;;;3.65;1.80;;;;;;;14.95;77.49;101613.88;5032869;28;96737;-29
2022/10/10 11:06:38;;;;;;;2.58;1.77;;;;;;;14.94;78.04;101617.56;5034123;28;98041;-29
2022/10/10 11:09:03;;;;;;;3.40;1.85;;;;;;;14.93;77.71;101624.03;5034710;28;100560;-30
2022/10/10 11:11:47;;;;;;;3.60;1.97;;;;;;;14.92;78.03;101619.53;5037495;28;96484;-29
2022/10/10 11:14:24;;;;;;;2.65;1.77;;;;;;;14.86;78.45;101615.38;5036559;28;97175;-29
2022/10/10 11:17:02;;;;;;;3.72;1.80;;;;;;;14.81;78.20;101623.00;5037071;27;98969;-30
2022/10/10 11:19:43;;;;;;;3.17;1.88;;;;;;;14.78;78.62;101615.91;5035659;28;100873;-30
2022/10/10 11:22:14;;;;;;;3.15;1.92;;;;;;;14.77;78.41;101621.44;5036993;28;96628;-31
2022/10/10 11:24:53;;;;;;;6.63;2.07;;;;;;;14.75;78.77;101624.25;5036000;28;96741;-30
2022/10/10 11:27:27;;;;;;;6.43;1.65;;;;;;;14.75;78.77;101624.25;5019157;28;101030;-29
2022/10/10 11:30:04;;;;;;;2.47;1.60;;;;;;;14.78;78.96;101626.81;5035658;28;100855;-29
2022/10/10 11:32:39;;;;;;;3.42;1.60;;;;;;;14.79;78.97;101628.53;5035943;28;96643;-29
2022/10/10 11:35:17;;;;;;;3.10;1.80;;;;;;;14.81;79.15;101629.31;5035824;28;96613;-31
2022/10/10 11:37:49;;;;;;;2.65;1.73;;;;;;;14.82;79.51;101628.31;5035291;28;100784;-29